Time;durP1;ratioP1;P1;durP2;ratioP2;P2;SDS_P1;SDS_P2;PMS_P1;PMS_P2;Temp;Humidity;BMP_temperature;BMP_pressure;BME280_temperature;BME280_humidity;BME280_pressure;Samples;Min_cycle;Max_cycle;Signal;HPM_P1;HPM_P2
2022/05/26 00:01:07;;;;;;;1.60;1.20;;;15.20;99.90;;;;;;5052746;28;20461;-43
2022/05/26 00:03:35;;;;;;;1.87;1.10;;;15.10;99.90;;;;;;5053009;28;20446;-46
2022/05/26 00:06:02;;;;;;;1.63;0.90;;;14.70;99.90;;;;;;5052790;28;20469;-42
2022/05/26 00:08:31;;;;;;;1.87;1.10;;;14.30;99.90;;;;;;5052466;28;20968;-43
2022/05/26 00:13:28;;;;;;;2.07;1.10;;;14.70;99.90;;;;;;5127671;22;20488;-42
2022/05/26 00:15:55;;;;;;;2.73;1.10;;;14.70;99.90;;;;;;5072469;28;20444;-42
2022/05/26 00:18:22;;;;;;;1.73;1.03;;;14.70;99.90;;;;;;5072767;28;20486;-42
2022/05/26 00:20:50;;;;;;;1.47;1.00;;;14.80;99.90;;;;;;5072015;28;20921;-42
2022/05/26 00:23:16;;;;;;;2.17;1.10;;;14.80;99.90;;;;;;5072263;28;20499;-42
2022/05/26 00:25:45;;;;;;;1.80;1.70;;;14.90;99.90;;;;;;5072145;28;20439;-43
2022/05/26 00:28:12;;;;;;;3.60;1.50;;;15.00;99.90;;;;;;5072019;28;20436;-42
2022/05/26 00:30:39;;;;;;;1.90;1.40;;;15.10;99.90;;;;;;5072131;28;20508;-42
2022/05/26 00:33:07;;;;;;;1.63;1.17;;;15.10;99.90;;;;;;5072322;28;20509;-42
2022/05/26 00:35:36;;;;;;;1.93;1.13;;;15.20;99.90;;;;;;5072211;28;20450;-42
2022/05/26 00:38:04;;;;;;;1.70;1.07;;;15.20;99.90;;;;;;5072138;28;20436;-42
2022/05/26 00:40:31;;;;;;;1.00;0.90;;;15.20;99.90;;;;;;5071258;28;20505;-42
2022/05/26 00:43:00;;;;;;;3.73;1.20;;;15.20;99.90;;;;;;5072112;28;20593;-42
2022/05/26 00:45:33;;;;;;;1.20;0.90;;;15.20;99.90;;;;;;5072099;28;20795;-42
2022/05/26 00:48:01;;;;;;;2.37;1.10;;;15.10;99.90;;;;;;5072029;28;20468;-42
2022/05/26 00:50:32;;;;;;;1.23;0.97;;;15.20;99.90;;;;;;5071465;28;20476;-42
2022/05/26 00:53:13;;;;;;;1.67;1.00;;;15.20;99.90;;;;;;5071735;28;20464;-42
2022/05/26 00:55:46;;;;;;;1.43;0.80;;;15.10;99.90;;;;;;5071893;28;20480;-42
2022/05/26 00:58:22;;;;;;;1.77;1.00;;;15.10;99.90;;;;;;5071835;28;20444;-42
2022/05/26 01:00:49;;;;;;;1.10;0.90;;;15.10;99.90;;;;;;5071567;28;20475;-42
2022/05/26 01:03:29;;;;;;;1.87;1.33;;;15.10;99.90;;;;;;5071597;28;20529;-42
2022/05/26 01:06:01;;;;;;;1.37;0.93;;;15.10;99.90;;;;;;5071801;28;20820;-42
2022/05/26 01:08:35;;;;;;;1.40;0.97;;;15.10;99.90;;;;;;5071139;28;20437;-42
2022/05/26 01:11:02;;;;;;;2.57;1.40;;;15.10;99.90;;;;;;5071248;28;20479;-42
2022/05/26 01:13:32;;;;;;;1.60;1.37;;;15.10;99.90;;;;;;5071292;28;20543;-42
2022/05/26 01:16:09;;;;;;;2.13;1.70;;;15.20;99.90;;;;;;5071763;28;20520;-42
2022/05/26 01:18:44;;;;;;;1.73;1.47;;;15.10;99.90;;;;;;5071581;28;20452;-42
2022/05/26 01:21:19;;;;;;;3.00;1.77;;;14.80;99.90;;;;;;5071423;28;20443;-42
2022/05/26 01:24:25;;;;;;;3.30;2.00;;;14.70;99.90;;;;;;5071578;28;20582;-42
2022/05/26 01:27:21;;;;;;;4.20;2.10;;;14.60;99.90;;;;;;5071335;28;20948;-42
2022/05/26 01:30:21;;;;;;;4.43;1.90;;;14.30;99.90;;;;;;5071537;28;20497;-42
2022/05/26 01:33:19;;;;;;;1.90;1.50;;;14.30;99.90;;;;;;5071220;28;20559;-42
2022/05/26 01:35:57;;;;;;;2.20;1.70;;;14.40;99.90;;;;;;5061097;28;20482;-42
2022/05/26 01:38:36;;;;;;;2.60;1.80;;;14.50;99.90;;;;;;5071515;28;20805;-42
2022/05/26 01:41:12;;;;;;;1.60;1.20;;;14.50;99.90;;;;;;5071073;28;20980;-42
2022/05/26 01:43:48;;;;;;;1.70;1.40;;;14.50;99.90;;;;;;5071012;28;20483;-42
2022/05/26 01:46:23;;;;;;;1.70;1.10;;;14.50;99.90;;;;;;5071167;28;20436;-42
2022/05/26 01:48:56;;;;;;;1.10;1.00;;;14.60;99.90;;;;;;5070883;28;20444;-42
2022/05/26 01:51:29;;;;;;;1.40;1.20;;;14.60;99.90;;;;;;5072338;28;20554;-42
2022/05/26 01:54:06;;;;;;;1.20;1.00;;;14.70;99.90;;;;;;5075294;28;20501;-42
2022/05/26 01:56:37;;;;;;;2.83;1.37;;;14.80;99.90;;;;;;5075145;28;20440;-42
2022/05/26 01:59:08;;;;;;;5.77;1.90;;;14.60;99.90;;;;;;5074902;28;20806;-42
2022/05/26 02:01:40;;;;;;;2.70;1.60;;;14.60;99.90;;;;;;5074873;28;20487;-42
2022/05/26 02:04:14;;;;;;;2.03;1.87;;;14.50;99.90;;;;;;5075244;28;20505;-42
2022/05/26 02:06:46;;;;;;;3.90;1.20;;;14.60;99.90;;;;;;5074586;28;20479;-42
2022/05/26 02:09:17;;;;;;;2.73;1.30;;;14.80;99.90;;;;;;5074718;28;20547;-42
2022/05/26 02:11:50;;;;;;;1.33;1.00;;;14.90;99.90;;;;;;5074624;28;20900;-42
2022/05/26 02:14:23;;;;;;;2.10;1.37;;;14.90;99.90;;;;;;5075407;28;20472;-42
2022/05/26 02:16:54;;;;;;;2.03;1.40;;;14.90;99.90;;;;;;5074770;28;20479;-42
2022/05/26 02:19:29;;;;;;;1.50;1.10;;;14.90;99.90;;;;;;5074966;28;20509;-42
2022/05/26 02:22:03;;;;;;;1.50;1.00;;;15.00;99.90;;;;;;5074394;28;21010;-42
2022/05/26 02:24:34;;;;;;;5.33;1.20;;;15.00;99.90;;;;;;5074742;28;20876;-42
2022/05/26 02:27:01;;;;;;;2.23;1.00;;;15.00;99.90;;;;;;5074543;28;20463;-42
2022/05/26 02:32:13;;;;;;;2.13;1.60;;;14.70;99.90;;;;;;5074424;28;20938;-42
2022/05/26 02:34:44;;;;;;;3.60;1.93;;;14.40;99.90;;;;;;5074579;28;20482;-42
2022/05/26 02:37:13;;;;;;;1.73;1.60;;;14.20;99.90;;;;;;5074409;28;20448;-42
2022/05/26 02:39:40;;;;;;;1.50;1.40;;;14.30;99.90;;;;;;5074004;28;20478;-42
2022/05/26 02:42:09;;;;;;;2.57;1.33;;;14.30;99.90;;;;;;5074410;28;20539;-42
2022/05/26 02:44:37;;;;;;;2.50;1.40;;;13.90;99.90;;;;;;5074547;28;20816;-42
2022/05/26 02:47:14;;;;;;;2.53;1.37;;;13.60;99.90;;;;;;5074360;28;20478;-42
2022/05/26 02:49:58;;;;;;;2.47;1.73;;;13.50;99.90;;;;;;5073906;28;20486;-42
2022/05/26 02:52:32;;;;;;;2.10;1.50;;;13.70;99.90;;;;;;5074189;28;20534;-42
2022/05/26 02:55:13;;;;;;;2.43;1.50;;;14.00;99.90;;;;;;5074194;28;20444;-42
2022/05/26 02:57:49;;;;;;;3.27;1.73;;;14.20;99.90;;;;;;5074478;28;20462;-42
2022/05/26 03:00:19;;;;;;;2.40;2.17;;;14.20;99.90;;;;;;5073700;28;20527;-42
2022/05/26 03:02:54;;;;;;;3.10;1.90;;;14.10;99.90;;;;;;5073328;28;20484;-42
2022/05/26 03:05:27;;;;;;;4.33;1.87;;;14.00;99.90;;;;;;5074040;28;20440;-42
2022/05/26 03:07:57;;;;;;;2.60;1.70;;;14.10;99.90;;;;;;5073345;28;20476;-42
2022/05/26 03:10:25;;;;;;;3.83;2.20;;;14.30;99.90;;;;;;5073704;28;20475;-42
2022/05/26 03:12:55;;;;;;;2.63;1.80;;;14.30;99.90;;;;;;5073464;28;20488;-42
2022/05/26 03:15:23;;;;;;;1.93;1.30;;;14.40;99.90;;;;;;5073922;28;20445;-42
2022/05/26 03:17:50;;;;;;;1.97;1.63;;;14.30;99.90;;;;;;5073779;28;20493;-44
2022/05/26 03:20:17;;;;;;;1.93;1.70;;;14.10;99.90;;;;;;5073446;28;20436;-44
2022/05/26 03:22:45;;;;;;;4.17;1.60;;;14.00;99.90;;;;;;5073470;28;20494;-44
2022/05/26 03:25:13;;;;;;;2.77;1.90;;;13.90;99.90;;;;;;5073509;28;20444;-45
2022/05/26 03:27:41;;;;;;;2.03;1.60;;;14.00;99.90;;;;;;5073565;28;20440;-44
2022/05/26 03:30:08;;;;;;;1.73;1.63;;;14.10;99.90;;;;;;5073364;28;20501;-44
2022/05/26 03:32:35;;;;;;;2.10;1.90;;;14.10;99.90;;;;;;5073207;28;20989;-44
2022/05/26 03:43:19;;;;;;;12.93;3.40;;;13.90;99.90;;;;;;5073120;28;20937;-44
2022/05/26 03:45:46;;;;;;;3.00;2.63;;;13.70;99.90;;;;;;5073213;28;20472;-44
2022/05/26 03:48:13;;;;;;;2.60;2.30;;;13.50;99.90;;;;;;5072989;28;20441;-45
2022/05/26 03:50:40;;;;;;;3.10;2.50;;;13.40;99.90;;;;;;5073116;28;20524;-44
2022/05/26 03:53:09;;;;;;;6.10;2.33;;;13.30;99.90;;;;;;5072815;28;20503;-44
2022/05/26 03:55:36;;;;;;;3.57;2.33;;;13.40;99.90;;;;;;5073136;28;20505;-44
2022/05/26 03:58:03;;;;;;;2.77;2.27;;;13.40;99.90;;;;;;5072794;28;20445;-44
2022/05/26 04:00:32;;;;;;;2.30;2.10;;;13.50;99.90;;;;;;5072433;28;20448;-44
2022/05/26 04:02:59;;;;;;;4.73;2.57;;;13.50;99.90;;;;;;5072589;28;20461;-44
2022/05/26 04:05:27;;;;;;;4.00;2.50;;;13.40;99.90;;;;;;5072974;28;20518;-44
2022/05/26 04:07:53;;;;;;;3.33;2.37;;;13.30;99.90;;;;;;5072285;28;20449;-44
2022/05/26 04:10:22;;;;;;;5.43;2.40;;;13.30;99.90;;;;;;5072242;28;20476;-45
2022/05/26 04:12:49;;;;;;;2.90;2.57;;;13.30;99.90;;;;;;5072196;28;20563;-44
2022/05/26 04:15:18;;;;;;;5.27;2.60;;;13.20;99.90;;;;;;5071847;28;20476;-44
2022/05/26 04:17:46;;;;;;;2.43;2.10;;;13.10;99.90;;;;;;5072701;28;20517;-44
2022/05/26 04:20:15;;;;;;;2.67;2.40;;;13.10;99.90;;;;;;5072251;28;20479;-44
2022/05/26 04:22:42;;;;;;;3.30;2.30;;;13.10;99.90;;;;;;5072175;28;20980;-44
2022/05/26 04:25:10;;;;;;;3.20;2.97;;;13.10;99.90;;;;;;5072339;28;20468;-44
2022/05/26 04:27:39;;;;;;;3.43;3.13;;;13.20;99.90;;;;;;5072181;28;20479;-44
2022/05/26 04:30:09;;;;;;;3.40;3.10;;;13.30;99.90;;;;;;5072069;28;20436;-44
2022/05/26 04:32:36;;;;;;;3.33;3.03;;;13.30;99.90;;;;;;5072018;28;20484;-44
2022/05/26 04:35:04;;;;;;;4.90;3.00;;;13.30;99.90;;;;;;5072299;28;20468;-44
2022/05/26 04:37:31;;;;;;;3.40;3.10;;;13.30;99.90;;;;;;5071991;28;20441;-44
2022/05/26 04:39:59;;;;;;;4.90;3.50;;;13.30;99.90;;;;;;5071744;28;20441;-45
2022/05/26 04:42:26;;;;;;;4.33;3.17;;;13.50;99.90;;;;;;5072008;28;20460;-45
2022/05/26 04:44:54;;;;;;;5.03;3.73;;;13.50;99.90;;;;;;5072044;28;20440;-44
2022/05/26 04:47:22;;;;;;;4.73;3.33;;;13.50;99.90;;;;;;5072121;28;20595;-45
2022/05/26 04:49:49;;;;;;;3.10;2.77;;;13.50;99.90;;;;;;5071819;28;20476;-44
2022/05/26 04:52:19;;;;;;;3.70;3.40;;;13.60;99.90;;;;;;5071739;28;20564;-44
2022/05/26 04:54:47;;;;;;;5.03;3.23;;;13.60;99.90;;;;;;5072313;28;20472;-45
2022/05/26 04:57:15;;;;;;;3.50;2.87;;;13.70;99.90;;;;;;5071985;28;20501;-44
2022/05/26 04:59:42;;;;;;;3.30;3.00;;;13.60;99.90;;;;;;5071480;28;20484;-44
2022/05/26 05:02:13;;;;;;;4.43;3.60;;;13.60;99.90;;;;;;5071213;28;20452;-44
2022/05/26 05:04:44;;;;;;;3.47;3.17;;;13.50;99.90;;;;;;5071281;28;20514;-45
2022/05/26 05:07:11;;;;;;;4.60;3.60;;;13.60;99.90;;;;;;5071693;28;20444;-45
2022/05/26 05:09:39;;;;;;;3.83;3.50;;;13.60;99.90;;;;;;5071738;28;20531;-45
2022/05/26 05:12:07;;;;;;;9.60;5.00;;;13.70;99.90;;;;;;5071121;28;20567;-45
2022/05/26 05:14:39;;;;;;;4.97;3.97;;;13.80;99.90;;;;;;5071109;28;20468;-44
2022/05/26 05:17:06;;;;;;;4.10;3.70;;;13.80;99.90;;;;;;5071556;28;20483;-45
2022/05/26 05:19:34;;;;;;;3.10;2.80;;;13.80;99.90;;;;;;5070778;28;20463;-44
2022/05/26 05:22:04;;;;;;;4.50;4.10;;;13.80;99.90;;;;;;5070510;28;20976;-44
2022/05/26 05:24:35;;;;;;;3.53;3.20;;;13.90;99.90;;;;;;5070540;28;20444;-46
2022/05/26 05:27:08;;;;;;;4.60;4.20;;;13.80;99.90;;;;;;5070852;28;20535;-45
2022/05/26 05:29:37;;;;;;;3.90;3.50;;;13.80;99.90;;;;;;5070908;28;20477;-45
2022/05/26 05:32:09;;;;;;;6.80;3.90;;;13.80;99.90;;;;;;5070815;28;20472;-46
2022/05/26 05:34:43;;;;;;;4.33;3.93;;;13.80;99.90;;;;;;5071007;28;20520;-45
2022/05/26 05:37:10;;;;;;;4.33;3.70;;;13.80;99.90;;;;;;5071283;28;20540;-46
2022/05/26 05:39:37;;;;;;;18.60;4.70;;;13.80;99.90;;;;;;5070304;28;20433;-45
2022/05/26 05:42:05;;;;;;;5.10;3.47;;;13.80;99.90;;;;;;5071544;28;20492;-45
2022/05/26 05:44:33;;;;;;;7.20;4.20;;;13.70;99.90;;;;;;5071226;28;20650;-45
2022/05/26 05:47:01;;;;;;;10.77;4.93;;;13.70;99.90;;;;;;5071091;28;20463;-45
2022/05/26 05:49:30;;;;;;;3.90;3.57;;;13.70;99.90;;;;;;5070772;28;20909;-46
2022/05/26 05:52:06;;;;;;;3.17;2.87;;;13.80;99.90;;;;;;5070983;28;20511;-46
2022/05/26 05:54:33;;;;;;;3.80;3.50;;;13.80;99.90;;;;;;5069758;28;20539;-45
2022/05/26 05:57:00;;;;;;;3.60;3.30;;;13.80;99.90;;;;;;5073538;28;20944;-45
2022/05/26 05:59:27;;;;;;;4.70;3.90;;;13.80;99.90;;;;;;5089067;28;20848;-45
2022/05/26 06:01:55;;;;;;;3.30;3.10;;;13.80;99.90;;;;;;5074524;28;20459;-46
2022/05/26 06:04:22;;;;;;;4.80;3.73;;;13.90;99.90;;;;;;5070193;28;20448;-45
2022/05/26 06:06:50;;;;;;;4.00;3.10;;;14.00;99.90;;;;;;5070578;28;20440;-46
2022/05/26 06:09:20;;;;;;;3.73;3.23;;;14.10;99.90;;;;;;5070954;28;20448;-46
2022/05/26 06:11:48;;;;;;;3.77;3.40;;;14.30;99.90;;;;;;5071903;28;20472;-51
2022/05/26 06:14:16;;;;;;;2.93;2.60;;;14.30;99.90;;;;;;5070154;28;20509;-50
2022/05/26 06:16:44;;;;;;;3.80;2.80;;;14.60;99.90;;;;;;5070291;28;20817;-47
2022/05/26 06:19:11;;;;;;;6.20;3.20;;;14.60;99.90;;;;;;5069064;28;20440;-48
2022/05/26 06:21:39;;;;;;;4.13;3.83;;;14.70;99.90;;;;;;5083394;28;20459;-49
2022/05/26 06:24:07;;;;;;;3.13;2.83;;;14.80;99.90;;;;;;5089470;28;20879;-51
2022/05/26 06:26:36;;;;;;;4.23;3.17;;;15.00;99.90;;;;;;5089030;28;20947;-47
2022/05/26 06:37:17;;;;;;;3.40;3.10;;;15.30;99.90;;;;;;5090470;28;20423;-44
2022/05/26 06:39:44;;;;;;;3.63;3.07;;;15.50;99.90;;;;;;5085772;28;20445;-46
2022/05/26 06:42:13;;;;;;;4.40;3.40;;;15.60;99.90;;;;;;5072682;28;20466;-44
2022/05/26 06:44:42;;;;;;;6.27;3.07;;;15.60;99.90;;;;;;5071733;28;21024;-45
2022/05/26 06:47:11;;;;;;;8.20;3.50;;;15.70;99.90;;;;;;5073511;28;20456;-46
2022/05/26 06:49:40;;;;;;;4.27;3.50;;;15.70;99.90;;;;;;5073088;28;20529;-47
2022/05/26 06:52:08;;;;;;;2.87;2.50;;;15.80;99.90;;;;;;5073455;28;20501;-48
2022/05/26 06:54:37;;;;;;;3.70;2.97;;;15.70;99.90;;;;;;5074180;28;20444;-44
2022/05/26 06:57:06;;;;;;;20.33;4.80;;;15.90;99.90;;;;;;5073314;28;20486;-45
2022/05/26 06:59:35;;;;;;;8.43;3.77;;;16.00;99.90;;;;;;5071990;28;20436;-44
2022/05/26 07:02:02;;;;;;;2.60;2.40;;;16.00;99.90;;;;;;5073707;28;20460;-45
2022/05/26 07:04:29;;;;;;;4.10;3.07;;;16.10;99.90;;;;;;5074453;28;20474;-45
2022/05/26 07:06:56;;;;;;;4.37;2.30;;;16.10;99.90;;;;;;5074031;28;20479;-46
2022/05/26 07:09:24;;;;;;;2.50;2.20;;;16.20;99.90;;;;;;5073502;28;20817;-45
2022/05/26 07:11:52;;;;;;;3.63;2.50;;;16.20;99.90;;;;;;5073667;28;20507;-45
2022/05/26 07:14:21;;;;;;;4.67;2.47;;;16.30;99.90;;;;;;5073810;28;20484;-44
2022/05/26 07:16:49;;;;;;;3.87;2.50;;;16.30;99.90;;;;;;5073561;28;20479;-45
2022/05/26 07:19:18;;;;;;;5.17;2.50;;;16.30;99.90;;;;;;5073155;28;20440;-44
2022/05/26 07:21:46;;;;;;;5.00;2.90;;;16.50;99.90;;;;;;5073247;28;20492;-45
2022/05/26 07:24:14;;;;;;;3.30;2.13;;;16.50;99.90;;;;;;5073458;28;20445;-45
2022/05/26 07:26:42;;;;;;;2.27;2.07;;;16.50;99.90;;;;;;5073436;28;20444;-45
2022/05/26 07:29:09;;;;;;;2.80;2.20;;;16.40;99.90;;;;;;5073414;28;20527;-45
2022/05/26 07:31:37;;;;;;;3.87;1.80;;;16.50;99.90;;;;;;5073341;28;20897;-47
2022/05/26 07:34:06;;;;;;;2.47;1.87;;;16.50;99.90;;;;;;5073313;28;21062;-45
2022/05/26 07:42:04;;;;;;;8.83;2.57;;;16.80;99.90;;;;;;5073337;28;20443;-45
2022/05/26 07:44:36;;;;;;;3.13;2.10;;;16.90;99.90;;;;;;5073242;28;20574;-45
2022/05/26 07:47:03;;;;;;;3.03;2.00;;;16.90;99.90;;;;;;5073122;28;20440;-45
2022/05/26 07:49:31;;;;;;;3.77;2.40;;;17.00;99.90;;;;;;5071359;28;20445;-44
2022/05/26 07:52:01;;;;;;;3.40;1.93;;;17.10;99.90;;;;;;5072818;28;21154;-45
2022/05/26 07:54:28;;;;;;;6.27;2.47;;;17.20;99.90;;;;;;5072313;28;20511;-45
2022/05/26 07:56:56;;;;;;;4.00;1.83;;;17.30;99.90;;;;;;5073086;28;20478;-45
2022/05/26 07:59:23;;;;;;;2.20;1.40;;;17.20;99.90;;;;;;5072839;28;20812;-45
2022/05/26 08:01:50;;;;;;;2.67;1.70;;;17.20;99.90;;;;;;5072542;28;20548;-48
2022/05/26 08:04:17;;;;;;;1.87;1.67;;;17.00;99.90;;;;;;5072792;28;20436;-45
2022/05/26 08:06:47;;;;;;;1.90;1.73;;;16.90;99.90;;;;;;5072444;28;20479;-49
2022/05/26 08:09:15;;;;;;;3.20;1.60;;;16.70;99.90;;;;;;5071461;28;20953;-45
2022/05/26 08:11:42;;;;;;;3.27;1.50;;;16.60;99.90;;;;;;5064701;28;20551;-47
2022/05/26 08:14:10;;;;;;;7.23;2.40;;;16.60;99.90;;;;;;5058157;28;20563;-45
2022/05/26 08:16:37;;;;;;;1.63;1.47;;;16.70;99.90;;;;;;5052995;28;20532;-46
2022/05/26 08:19:05;;;;;;;3.73;1.60;;;16.70;99.90;;;;;;5051700;28;20507;-45
2022/05/26 08:21:33;;;;;;;12.60;2.30;;;17.00;99.90;;;;;;5053016;28;21039;-45
2022/05/26 08:24:01;;;;;;;1.93;1.63;;;17.20;99.90;;;;;;5052943;28;20989;-45
2022/05/26 08:26:30;;;;;;;2.40;1.60;;;17.40;99.90;;;;;;5052403;28;20518;-45
2022/05/26 08:28:58;;;;;;;3.10;1.87;;;17.70;99.90;;;;;;5052107;28;20511;-45
2022/05/26 08:31:25;;;;;;;6.20;1.60;;;18.10;99.90;;;;;;5059313;28;20461;-45
2022/05/26 08:33:53;;;;;;;1.97;1.87;;;18.20;99.90;;;;;;5059887;28;21062;-46
2022/05/26 08:36:23;;;;;;;1.93;1.53;;;18.30;99.90;;;;;;5058499;28;20440;-46
2022/05/26 08:38:51;;;;;;;1.90;1.70;;;18.40;99.90;;;;;;5071967;28;20453;-46
2022/05/26 08:41:23;;;;;;;2.73;2.10;;;18.60;99.90;;;;;;5070231;28;20947;-46
2022/05/26 08:43:55;;;;;;;2.33;1.30;;;18.70;99.90;;;;;;5067216;28;20437;-44
2022/05/26 08:46:22;;;;;;;5.57;2.40;;;18.90;99.90;;;;;;5070245;28;21119;-45
2022/05/26 08:48:57;;;;;;;3.07;1.60;;;18.90;99.90;;;;;;5065086;28;20498;-46
2022/05/26 08:51:35;;;;;;;2.30;2.10;;;19.00;99.90;;;;;;5061762;28;20463;-46
2022/05/26 08:54:05;;;;;;;2.07;1.87;;;19.20;99.90;;;;;;5052671;28;20885;-46
2022/05/26 08:56:34;;;;;;;3.57;2.67;;;19.20;99.90;;;;;;5051854;28;20445;-47
2022/05/26 08:59:06;;;;;;;3.30;2.60;;;19.40;99.90;;;;;;5051448;28;20476;-46
2022/05/26 09:01:33;;;;;;;2.20;1.80;;;19.60;99.90;;;;;;5051655;28;20489;-45
2022/05/26 09:04:01;;;;;;;6.30;2.80;;;19.50;99.90;;;;;;5051955;28;20499;-50
2022/05/26 09:06:30;;;;;;;4.03;1.60;;;19.50;99.90;;;;;;5051662;28;20952;-45
2022/05/26 09:14:33;;;;;;;2.67;1.80;;;19.70;99.90;;;;;;5050085;28;20525;-48
2022/05/26 09:17:04;;;;;;;1.80;1.67;;;19.80;99.90;;;;;;5050228;28;20653;-46
2022/05/26 09:19:33;;;;;;;4.20;2.37;;;19.70;99.90;;;;;;5049689;28;20477;-46
2022/05/26 09:22:01;;;;;;;2.27;1.83;;;19.70;99.90;;;;;;5049965;28;20461;-46
2022/05/26 09:24:36;;;;;;;1.67;1.40;;;19.80;99.90;;;;;;5049825;28;20437;-46
2022/05/26 09:27:07;;;;;;;1.87;1.43;;;19.80;99.90;;;;;;5050472;28;20451;-46
2022/05/26 09:29:37;;;;;;;2.03;1.60;;;19.80;99.90;;;;;;5051067;28;20825;-46
2022/05/26 09:32:06;;;;;;;2.27;1.40;;;19.90;99.90;;;;;;5051236;28;21057;-46
2022/05/26 09:34:36;;;;;;;1.40;1.20;;;20.00;99.90;;;;;;5050900;28;20465;-46
2022/05/26 09:37:06;;;;;;;1.40;1.30;;;20.00;99.90;;;;;;5051303;28;20495;-46
2022/05/26 09:39:37;;;;;;;3.23;1.50;;;19.90;99.90;;;;;;5051111;28;20540;-45
2022/05/26 09:42:22;;;;;;;2.90;1.60;;;20.00;99.90;;;;;;5051130;28;20997;-48
2022/05/26 09:44:53;;;;;;;2.07;1.87;;;20.00;99.90;;;;;;5051277;28;20487;-46
2022/05/26 09:47:33;;;;;;;2.77;1.60;;;20.10;99.90;;;;;;5050970;28;20992;-46
2022/05/26 09:50:02;;;;;;;2.13;1.33;;;19.90;99.90;;;;;;5050708;28;20444;-46
2022/05/26 09:52:39;;;;;;;1.93;1.53;;;20.00;99.90;;;;;;5050946;28;20486;-47
2022/05/26 09:55:11;;;;;;;1.87;1.50;;;20.10;99.90;;;;;;5050860;28;21023;-46
2022/05/26 09:57:39;;;;;;;3.07;1.30;;;20.10;99.90;;;;;;5051120;28;20480;-46
2022/05/26 10:00:34;;;;;;;1.70;1.53;;;20.00;99.90;;;;;;5050633;28;20492;-45
2022/05/26 10:03:05;;;;;;;1.60;1.37;;;20.00;99.90;;;;;;5051286;28;20489;-46
2022/05/26 10:05:43;;;;;;;1.90;1.60;;;20.10;99.90;;;;;;5050836;28;20437;-49
2022/05/26 10:08:19;;;;;;;2.07;1.67;;;20.20;99.90;;;;;;5051210;28;20472;-49
2022/05/26 10:10:54;;;;;;;2.43;1.70;;;20.30;99.90;;;;;;5051356;28;20476;-48
2022/05/26 10:13:36;;;;;;;4.17;1.40;;;20.50;99.90;;;;;;5053639;28;21051;-46
2022/05/26 10:16:12;;;;;;;2.20;1.30;;;20.60;99.90;;;;;;5055275;28;20499;-46
2022/05/26 10:19:04;;;;;;;1.70;1.13;;;20.60;99.90;;;;;;5054697;28;20441;-52
2022/05/26 10:21:50;;;;;;;1.80;1.20;;;20.60;99.90;;;;;;5054814;28;21021;-46
2022/05/26 10:24:36;;;;;;;2.50;1.80;;;20.70;99.90;;;;;;5054673;28;21005;-46
2022/05/26 10:27:14;;;;;;;1.93;1.63;;;20.70;99.90;;;;;;5054725;28;20998;-48
2022/05/26 10:30:00;;;;;;;1.40;1.30;;;20.70;99.90;;;;;;5054162;28;20438;-48
2022/05/26 10:32:37;;;;;;;1.37;1.20;;;20.60;99.90;;;;;;5054854;28;20548;-46
2022/05/26 10:35:19;;;;;;;1.40;1.30;;;20.70;99.90;;;;;;5054185;28;20557;-46
2022/05/26 10:38:03;;;;;;;1.50;1.20;;;20.70;99.90;;;;;;5054599;28;20451;-49
2022/05/26 10:40:37;;;;;;;1.70;1.43;;;20.70;99.90;;;;;;5054352;28;20498;-47
2022/05/26 10:43:10;;;;;;;1.47;1.33;;;20.70;99.90;;;;;;5054462;28;20460;-48
2022/05/26 10:45:40;;;;;;;1.80;1.50;;;20.80;99.90;;;;;;5054189;28;20873;-46
2022/05/26 10:48:11;;;;;;;3.70;1.63;;;20.80;99.90;;;;;;5054045;28;20449;-46
2022/05/26 10:50:43;;;;;;;1.57;1.47;;;20.90;99.90;;;;;;5054047;28;20929;-46
2022/05/26 10:53:20;;;;;;;2.43;1.50;;;20.90;99.90;;;;;;5054115;28;20538;-46
2022/05/26 10:55:53;;;;;;;1.90;1.43;;;21.00;99.90;;;;;;5054265;28;20445;-49
2022/05/26 10:58:26;;;;;;;4.40;1.53;;;21.00;99.90;;;;;;5053913;28;21034;-46
2022/05/26 11:01:00;;;;;;;2.27;1.00;;;20.90;99.90;;;;;;5054132;28;20449;-46
2022/05/26 11:03:31;;;;;;;1.33;1.00;;;20.90;99.90;;;;;;5054232;28;20452;-46
2022/05/26 11:06:04;;;;;;;1.70;1.07;;;21.00;99.90;;;;;;5053183;28;20480;-48
2022/05/26 11:08:37;;;;;;;1.70;1.60;;;20.90;99.90;;;;;;5052153;28;20448;-49
2022/05/26 11:11:08;;;;;;;1.90;1.30;;;21.00;99.90;;;;;;5052390;28;20733;-46
2022/05/26 11:13:46;;;;;;;2.30;1.90;;;21.00;99.90;;;;;;5052133;28;20481;-47
2022/05/26 11:19:24;;;;;;;2.17;1.67;;;21.20;99.90;;;;;;5051853;28;20428;-46
2022/05/26 11:21:52;;;;;;;2.27;1.80;;;21.20;99.90;;;;;;5052930;28;20901;-49
2022/05/26 11:24:20;;;;;;;1.90;1.70;;;21.20;99.90;;;;;;5053595;28;20456;-46
2022/05/26 11:26:52;;;;;;;2.07;1.30;;;21.20;99.90;;;;;;5053647;28;20473;-46
2022/05/26 11:29:23;;;;;;;2.63;1.40;;;21.20;99.90;;;;;;5053481;28;20467;-45
2022/05/26 11:37:41;;;;;;;3.20;1.40;;;21.20;99.90;;;;;;5053386;28;20988;-46
2022/05/26 11:40:11;;;;;;;1.63;1.17;;;21.30;99.90;;;;;;5052996;28;20477;-45
2022/05/26 11:42:50;;;;;;;3.67;1.20;;;21.30;99.90;;;;;;5052908;28;20461;-46
2022/05/26 11:45:21;;;;;;;1.63;1.27;;;21.30;99.90;;;;;;5053296;28;20480;-47
2022/05/26 11:47:53;;;;;;;2.00;1.13;;;21.40;99.90;;;;;;5052744;28;20480;-46
2022/05/26 11:50:30;;;;;;;1.43;1.20;;;21.40;99.90;;;;;;5052966;28;20469;-46
2022/05/26 11:53:12;;;;;;;4.03;1.43;;;21.40;99.90;;;;;;5053096;28;20527;-46
2022/05/26 11:55:58;;;;;;;1.53;1.30;;;21.40;99.90;;;;;;5052857;28;21004;-46
2022/05/26 11:58:38;;;;;;;1.80;1.50;;;21.40;99.90;;;;;;5053128;28;20528;-51
2022/05/26 12:01:14;;;;;;;4.80;1.50;;;21.10;99.90;;;;;;5052892;28;20495;-47
2022/05/26 12:04:05;;;;;;;2.30;1.30;;;21.00;99.90;;;;;;5052716;28;20475;-45
2022/05/26 12:06:36;;;;;;;3.80;1.50;;;20.80;99.90;;;;;;5052527;28;20865;-46
2022/05/26 12:09:05;;;;;;;1.70;1.23;;;21.00;99.90;;;;;;5052893;28;20445;-46
2022/05/26 12:14:05;;;;;;;1.67;1.47;;;20.90;99.90;;;;;;5093256;22;20480;-47
2022/05/26 12:16:34;;;;;;;1.63;1.23;;;21.10;99.90;;;;;;5072664;28;20448;-46
2022/05/26 12:19:05;;;;;;;3.63;1.20;;;21.10;99.90;;;;;;5072257;28;20944;-47
2022/05/26 12:21:47;;;;;;;1.53;1.10;;;21.20;99.90;;;;;;5072579;28;20445;-46
2022/05/26 12:24:50;;;;;;;2.93;1.73;;;21.30;99.90;;;;;;5052541;28;20434;-46
2022/05/26 12:27:58;;;;;;;3.47;1.20;;;21.30;99.90;;;;;;5052489;28;20452;-47
2022/05/26 12:30:55;;;;;;;2.07;0.97;;;21.40;99.90;;;;;;5052179;28;20630;-45
2022/05/26 12:33:48;;;;;;;5.60;1.53;;;21.40;99.90;;;;;;5051763;28;20464;-48
2022/05/26 12:36:24;;;;;;;2.40;1.50;;;21.60;99.90;;;;;;5051016;28;20520;-46
2022/05/26 12:39:06;;;;;;;1.30;1.00;;;21.50;99.90;;;;;;5052019;28;20449;-46
2022/05/26 12:41:45;;;;;;;1.93;1.57;;;21.50;99.90;;;;;;5052044;28;20473;-46
2022/05/26 12:44:39;;;;;;;9.50;1.60;;;21.50;99.90;;;;;;5052425;28;20465;-46
2022/05/26 12:47:20;;;;;;;2.47;1.70;;;21.70;99.90;;;;;;5052221;28;20473;-46
2022/05/26 12:49:58;;;;;;;1.77;1.30;;;21.70;99.90;;;;;;5051862;28;20429;-47
2022/05/26 12:52:31;;;;;;;1.63;1.53;;;21.80;99.90;;;;;;5051784;28;20985;-48
2022/05/26 12:55:12;;;;;;;1.87;1.43;;;21.80;99.90;;;;;;5051861;28;20989;-46
2022/05/26 12:57:44;;;;;;;1.57;1.33;;;21.80;99.90;;;;;;5051948;28;20445;-48
2022/05/26 13:00:42;;;;;;;10.63;3.00;;;21.80;99.90;;;;;;5051556;28;20942;-47
2022/05/26 13:03:22;;;;;;;2.33;1.20;;;21.80;99.90;;;;;;5006874;28;20556;-47
2022/05/26 13:05:57;;;;;;;2.30;1.20;;;21.70;99.90;;;;;;5051786;28;20433;-45
2022/05/26 13:08:26;;;;;;;1.70;1.40;;;21.60;99.90;;;;;;5051724;28;20498;-48
2022/05/26 13:10:56;;;;;;;2.33;1.23;;;21.60;99.90;;;;;;5051419;28;20856;-46
2022/05/26 13:13:30;;;;;;;1.97;1.00;;;21.50;99.90;;;;;;5051307;28;20982;-46
2022/05/26 13:16:35;;;;;;;2.43;1.53;;;21.60;99.90;;;;;;5051431;28;20519;-46
2022/05/26 13:19:16;;;;;;;23.90;4.47;;;21.70;99.90;;;;;;5040667;28;20449;-48
2022/05/26 13:21:45;;;;;;;2.97;1.50;;;21.70;99.90;;;;;;5051409;28;20859;-46
2022/05/26 13:24:18;;;;;;;1.50;1.23;;;21.70;99.90;;;;;;5051414;28;20432;-51
2022/05/26 13:26:46;;;;;;;2.57;1.60;;;21.70;99.90;;;;;;5051384;28;20477;-51
2022/05/26 13:29:18;;;;;;;3.07;1.40;;;21.60;99.90;;;;;;5051365;28;20442;-47
2022/05/26 13:34:33;;;;;;;1.50;1.40;;;21.60;99.90;;;;;;5051515;28;20623;-46
2022/05/26 13:37:14;;;;;;;3.23;1.50;;;21.50;99.90;;;;;;5051420;28;20476;-45
2022/05/26 13:39:41;;;;;;;2.13;1.43;;;21.50;99.90;;;;;;5050995;28;20532;-46
2022/05/26 13:42:09;;;;;;;2.80;1.50;;;21.40;99.90;;;;;;5051622;28;20527;-46
2022/05/26 13:44:39;;;;;;;3.60;2.27;;;21.30;99.90;;;;;;5051268;28;20493;-48
2022/05/26 13:47:08;;;;;;;3.97;1.50;;;21.20;99.90;;;;;;5054003;28;20469;-50
2022/05/26 13:49:39;;;;;;;1.83;1.60;;;21.40;99.90;;;;;;5055112;28;20449;-46
2022/05/26 13:52:13;;;;;;;1.97;1.53;;;21.40;99.90;;;;;;5055221;28;20497;-45
2022/05/26 13:54:49;;;;;;;1.40;1.30;;;21.50;99.90;;;;;;5055523;28;20567;-51
2022/05/26 13:57:20;;;;;;;10.53;2.60;;;21.30;99.90;;;;;;5055049;28;21001;-45